createdAt,value
2023-05-14T00:00:01.222Z,40.4
2023-05-14T00:05:01.357Z,40.3
2023-05-14T00:10:01.280Z,40.3
2023-05-14T00:15:01.221Z,40.3
2023-05-14T00:20:01.327Z,40.4
2023-05-14T00:25:02.232Z,40.3
2023-05-14T00:35:01.256Z,40.3
2023-05-14T00:45:01.374Z,40.3
2023-05-14T00:50:01.260Z,40.3
2023-05-14T00:55:01.199Z,40.3
2023-05-14T01:05:01.154Z,40.3
2023-05-14T01:10:01.194Z,40.3
2023-05-14T01:15:01.213Z,40.4
2023-05-14T01:20:01.191Z,40.4
2023-05-14T01:25:01.180Z,40.3
2023-05-14T01:30:01.347Z,40.3
2023-05-14T01:35:01.218Z,40.3
2023-05-14T01:45:01.194Z,40.3
2023-05-14T01:50:01.172Z,40.2
2023-05-14T01:55:01.210Z,40.2
2023-05-14T02:05:01.182Z,40.2
2023-05-14T02:10:01.194Z,40.2
2023-05-14T02:15:01.261Z,40.2
2023-05-14T02:20:01.218Z,40.1
2023-05-14T02:25:01.176Z,40.2
2023-05-14T02:30:01.544Z,40.1
2023-05-14T02:35:01.210Z,40.2
2023-05-14T02:45:01.193Z,40.1
2023-05-14T02:50:01.169Z,40.1
2023-05-14T02:55:01.230Z,40.1
2023-05-14T03:00:01.778Z,40.1
2023-05-14T03:05:01.206Z,40.1
2023-05-14T03:10:01.199Z,40.1
2023-05-14T03:15:01.228Z,40.1
2023-05-14T03:20:01.307Z,40.1
2023-05-14T03:25:01.171Z,40.1
2023-05-14T03:30:01.183Z,40.1
2023-05-14T03:35:01.211Z,40.1
2023-05-14T03:40:01.183Z,40.1
2023-05-14T03:45:01.271Z,40.1
2023-05-14T03:55:01.277Z,40.1
2023-05-14T04:00:04.199Z,40.1
2023-05-14T04:05:02.589Z,40.1
2023-05-14T04:15:01.262Z,40.1
2023-05-14T04:20:01.254Z,40.0
2023-05-14T04:25:01.193Z,40.0
2023-05-14T04:30:01.255Z,40.0
2023-05-14T04:35:01.205Z,40.0
2023-05-14T04:40:01.243Z,40.0
2023-05-14T04:45:01.229Z,40.0
2023-05-14T04:50:01.276Z,40.0
2023-05-14T04:55:01.262Z,40.0
2023-05-14T05:00:01.243Z,39.9
2023-05-14T05:05:01.231Z,40.0
2023-05-14T05:15:01.202Z,40.1
2023-05-14T05:20:01.165Z,40.2
2023-05-14T05:25:01.195Z,40.2
2023-05-14T05:35:01.243Z,40.2
2023-05-14T05:40:01.204Z,40.2
2023-05-14T05:45:01.267Z,40.2
2023-05-14T05:55:01.181Z,40.2
2023-05-14T06:00:01.297Z,40.2
2023-05-14T06:05:01.361Z,40.2
2023-05-14T06:15:01.259Z,40.3
2023-05-14T06:20:01.360Z,40.3
2023-05-14T06:25:01.193Z,40.3
2023-05-14T06:30:01.264Z,40.3
2023-05-14T06:35:01.166Z,40.2
2023-05-14T06:40:01.274Z,40.3
2023-05-14T06:45:01.239Z,40.3
2023-05-14T06:50:01.176Z,40.3
2023-05-14T06:55:01.303Z,40.4
2023-05-14T07:05:01.241Z,40.4
2023-05-14T07:10:01.204Z,40.4
2023-05-14T07:15:01.189Z,40.5
2023-05-14T07:20:01.212Z,40.5
2023-05-14T07:25:01.155Z,40.4
2023-05-14T07:30:01.265Z,40.5
2023-05-14T07:35:01.179Z,40.5
2023-05-14T07:40:01.177Z,40.5
2023-05-14T07:45:01.258Z,40.5
2023-05-14T07:50:01.188Z,40.6
2023-05-14T07:55:01.239Z,40.6
2023-05-14T08:00:01.227Z,40.6
2023-05-14T08:05:01.186Z,40.5
2023-05-14T08:10:01.178Z,40.5
2023-05-14T08:15:01.231Z,40.3
2023-05-14T08:20:01.188Z,40.2
2023-05-14T08:25:01.187Z,40.0
2023-05-14T08:30:01.266Z,40.2
2023-05-14T08:35:01.211Z,40.1
2023-05-14T08:40:00.572Z,40.2
2023-05-14T08:45:01.250Z,40.2
2023-05-14T08:50:01.226Z,40.0
2023-05-14T08:55:01.257Z,40.0
2023-05-14T09:05:01.223Z,40.0
2023-05-14T09:15:01.242Z,39.9
2023-05-14T09:25:01.161Z,40.0
2023-05-14T09:35:01.200Z,39.8
2023-05-14T09:45:01.253Z,39.7
2023-05-14T09:50:01.287Z,39.7
2023-05-14T09:55:01.456Z,39.8
2023-05-14T10:05:01.294Z,39.6
2023-05-14T10:10:01.231Z,39.5
2023-05-14T10:15:01.261Z,39.6
2023-05-14T10:20:01.282Z,39.4
2023-05-14T10:25:01.166Z,39.5
2023-05-14T10:30:01.268Z,39.3
2023-05-14T10:35:01.229Z,39.5
2023-05-14T10:45:01.175Z,39.3
2023-05-14T10:50:01.220Z,39.2
2023-05-14T10:55:03.998Z,39.2
2023-05-14T11:05:01.189Z,39.2
2023-05-14T11:10:01.187Z,39.3
2023-05-14T11:15:01.199Z,39.2
2023-05-14T11:20:01.272Z,39.2
2023-05-14T11:25:01.153Z,39.3
2023-05-14T11:30:01.217Z,39.4
2023-05-14T11:35:01.267Z,39.4
2023-05-14T11:45:01.288Z,39.6
2023-05-14T11:55:01.190Z,39.6
2023-05-14T12:05:01.272Z,39.6
2023-05-14T12:10:00.552Z,39.5
2023-05-14T12:15:01.290Z,39.5
2023-05-14T12:20:01.164Z,39.6
2023-05-14T12:25:01.242Z,39.6
2023-05-14T12:30:20.450Z,39.9
2023-05-14T12:35:01.321Z,40.0
2023-05-14T12:40:01.246Z,39.9
2023-05-14T12:45:01.218Z,39.9
2023-05-14T12:55:01.222Z,39.2
2023-05-14T13:00:01.329Z,39.0
2023-05-14T13:05:01.320Z,39.5
2023-05-14T13:15:01.512Z,39.6
2023-05-14T13:20:01.269Z,39.1
2023-05-14T13:25:03.571Z,38.8
2023-05-14T13:35:01.425Z,39.0
2023-05-14T13:45:01.303Z,38.9
2023-05-14T13:55:01.241Z,38.6
2023-05-14T14:00:01.269Z,38.6
2023-05-14T14:05:01.271Z,38.4
2023-05-14T14:10:01.217Z,38.5
2023-05-14T14:15:01.285Z,38.3
2023-05-14T14:20:01.150Z,38.2
2023-05-14T14:25:01.250Z,38.1
2023-05-14T14:35:01.369Z,38.4
2023-05-14T14:40:01.311Z,38.2
2023-05-14T14:45:01.176Z,38.1
2023-05-14T14:55:01.159Z,37.9
2023-05-14T15:05:01.190Z,37.8
2023-05-14T15:15:01.265Z,38.3
2023-05-14T15:20:01.319Z,38.4
2023-05-14T15:25:01.160Z,38.3
2023-05-14T15:30:01.278Z,38.7
2023-05-14T15:35:01.268Z,38.6
2023-05-14T15:40:01.216Z,38.5
2023-05-14T15:45:01.232Z,38.2
2023-05-14T15:55:01.216Z,38.2
2023-05-14T16:00:02.014Z,38.4
2023-05-14T16:05:01.270Z,38.4
2023-05-14T16:15:01.303Z,38.3
2023-05-14T16:20:01.283Z,38.0
2023-05-14T16:25:03.591Z,38.0
2023-05-14T16:30:01.282Z,37.9
2023-05-14T16:35:01.376Z,38.0
2023-05-14T16:40:01.271Z,38.2
2023-05-14T16:45:01.267Z,38.3
2023-05-14T16:55:01.178Z,38.6
2023-05-14T17:05:01.512Z,38.8
2023-05-14T17:15:05.442Z,38.7
2023-05-14T17:20:01.203Z,39.1
2023-05-14T17:25:01.236Z,38.4
2023-05-14T17:30:01.290Z,38.6
2023-05-14T17:35:01.223Z,38.7
2023-05-14T17:40:01.233Z,38.5
2023-05-14T17:45:01.200Z,38.2
2023-05-14T17:50:01.343Z,38.2
2023-05-14T17:55:01.249Z,38.2
2023-05-14T18:00:01.189Z,38.1
2023-05-14T18:05:01.227Z,38.0
2023-05-14T18:10:01.305Z,37.9
2023-05-14T18:15:01.289Z,37.8
2023-05-14T18:20:01.265Z,37.8
2023-05-14T18:25:01.215Z,37.7
2023-05-14T18:35:01.219Z,37.7
2023-05-14T18:40:01.271Z,37.6
2023-05-14T18:45:01.328Z,37.5
2023-05-14T18:55:01.219Z,37.6
2023-05-14T19:05:01.541Z,37.6
2023-05-14T19:10:01.289Z,37.6
2023-05-14T19:15:01.208Z,37.7
2023-05-14T19:20:01.301Z,37.7
2023-05-14T19:25:01.187Z,37.8
2023-05-14T19:35:01.213Z,37.8
2023-05-14T19:40:01.306Z,37.8
2023-05-14T19:45:01.282Z,38.1
2023-05-14T19:50:01.282Z,38.2
2023-05-14T19:55:01.207Z,38.4
2023-05-14T20:00:01.273Z,38.5
2023-05-14T20:05:01.173Z,38.6
2023-05-14T20:15:01.212Z,38.7
2023-05-14T20:20:01.335Z,38.8
2023-05-14T20:25:01.172Z,38.8
2023-05-14T20:35:01.153Z,39.0
2023-05-14T20:40:01.637Z,39.0
2023-05-14T20:45:01.199Z,39.0
2023-05-14T20:50:01.230Z,39.0
2023-05-14T20:55:02.461Z,39.0
2023-05-14T21:00:01.323Z,39.0
2023-05-14T21:05:01.349Z,38.9
2023-05-14T21:10:01.228Z,39.0
2023-05-14T21:15:01.292Z,39.0
2023-05-14T21:20:01.287Z,39.0
2023-05-14T21:25:01.203Z,39.0
2023-05-14T21:35:01.276Z,39.0
2023-05-14T21:40:01.316Z,39.0
2023-05-14T21:45:01.272Z,39.0
2023-05-14T21:50:01.181Z,39.0
2023-05-14T21:55:01.212Z,39.0
2023-05-14T22:00:01.224Z,39.0
2023-05-14T22:05:01.234Z,39.0
2023-05-14T22:10:01.235Z,39.2
2023-05-14T22:15:01.239Z,39.0
2023-05-14T22:20:01.324Z,39.0
2023-05-14T22:25:01.240Z,39.0
2023-05-14T22:30:01.294Z,39.1
2023-05-14T22:35:01.264Z,39.1
2023-05-14T22:40:01.228Z,39.1
2023-05-14T22:45:01.230Z,39.2
2023-05-14T22:55:01.233Z,39.2
2023-05-14T23:00:01.412Z,39.2
2023-05-14T23:05:01.208Z,39.1
2023-05-14T23:15:01.255Z,39.1
2023-05-14T23:20:01.214Z,39.1
2023-05-14T23:25:01.173Z,39.2
2023-05-14T23:35:01.236Z,39.4
2023-05-14T23:40:01.197Z,39.3
2023-05-14T23:45:01.175Z,39.3
2023-05-14T23:50:01.255Z,39.3
2023-05-14T23:55:01.173Z,39.3
